Newcastle, Canada
Current Conditions -  °F | °C
As of 1:00 PM on Thursday 23 Oct 2014 (Local Time) from CZBF Reporting Station
Overcast Overcast  
Wind Chill: 40°   Ceiling: 1600
Heat Index: 45°   Visibility: 12mi
Dew Point: 39°   Wind: 9mph
Humidity: 81%   Direction: 50°NE
Pressure: 30.26"   Gusts: 20mph
Location:  46.98°N, 65.57°W
Report Text: CZBF 231600Z 05008G17KT 12SM OVC016 07/04 A3026 RMK SC8 SLP249
Loading
Personal Weather Stations






























Interactive Weather Map
Tropical Storm Tracking
New forecast layout! Learn more

10-Day Weather Forecast

Advertisements
Track Severe Weather on mobile